createdAt,value
2023-03-12T00:01:24.518Z,4.51
2023-03-12T00:03:56.790Z,3.47
2023-03-12T00:06:25.709Z,3.00
2023-03-12T00:08:56.345Z,4.55
2023-03-12T00:11:25.467Z,6.49
2023-03-12T00:13:56.616Z,6.76
2023-03-12T00:16:28.462Z,5.31
2023-03-12T00:18:57.413Z,4.12
2023-03-12T00:21:26.358Z,3.24
2023-03-12T00:23:55.291Z,2.82
2023-03-12T00:26:24.200Z,4.42
2023-03-12T00:28:53.917Z,5.67
2023-03-12T00:31:27.590Z,6.44
2023-03-12T00:33:57.005Z,5.35
2023-03-12T00:36:28.387Z,4.05
2023-03-12T00:38:59.002Z,3.10
2023-03-12T00:41:30.481Z,2.69
2023-03-12T00:43:59.428Z,4.04
2023-03-12T00:46:28.418Z,5.43
2023-03-12T00:48:57.363Z,6.45
2023-03-12T00:51:26.242Z,5.90
2023-03-12T00:53:56.075Z,4.65
2023-03-12T00:56:25.178Z,3.61
2023-03-12T00:58:54.188Z,2.82
2023-03-12T01:01:23.475Z,3.11
2023-03-12T01:03:54.971Z,5.04
2023-03-12T01:06:23.979Z,6.46
2023-03-12T01:08:52.991Z,6.52
2023-03-12T01:11:22.628Z,5.27
2023-03-12T01:13:51.615Z,4.10
2023-03-12T01:16:20.625Z,3.22
2023-03-12T01:18:49.583Z,2.52
2023-03-12T01:21:18.550Z,2.46
2023-03-12T01:23:47.485Z,4.31
2023-03-12T01:26:16.419Z,5.71
2023-03-12T01:28:45.415Z,6.50
2023-03-12T01:31:17.021Z,5.62
2023-03-12T01:33:50.507Z,4.37
2023-03-12T01:36:22.543Z,3.42
2023-03-12T01:38:53.897Z,2.75
2023-03-12T01:41:24.429Z,2.21
2023-03-12T01:43:53.484Z,2.20
2023-03-12T01:46:38.474Z,3.91
2023-03-12T01:49:17.964Z,6.43
2023-03-12T01:51:57.163Z,7.53
2023-03-12T01:54:35.685Z,6.48
2023-03-12T01:57:08.962Z,4.95
2023-03-12T01:59:47.192Z,3.89
2023-03-12T02:02:17.212Z,3.07
2023-03-12T02:04:47.933Z,3.11
2023-03-12T02:07:17.698Z,5.20
2023-03-12T02:09:49.538Z,7.05
2023-03-12T02:12:18.819Z,6.96
2023-03-12T02:14:47.754Z,5.60
2023-03-12T02:17:16.750Z,4.47
2023-03-12T02:19:57.955Z,3.60
2023-03-12T02:22:27.260Z,4.60
2023-03-12T02:25:06.525Z,6.55
2023-03-12T02:27:37.562Z,7.35
2023-03-12T02:30:08.502Z,6.09
2023-03-12T02:32:40.058Z,4.79
2023-03-12T02:35:09.669Z,3.78
2023-03-12T02:37:50.191Z,3.37
2023-03-12T02:40:27.096Z,5.17
2023-03-12T02:42:57.352Z,6.88
2023-03-12T02:45:27.073Z,7.45
2023-03-12T02:47:56.013Z,6.28
2023-03-12T02:50:24.978Z,4.93
2023-03-12T02:52:53.925Z,3.91
2023-03-12T02:55:22.882Z,3.11
2023-03-12T02:57:51.785Z,2.87
2023-03-12T03:00:20.975Z,4.50
2023-03-12T03:02:50.081Z,6.22
2023-03-12T03:05:20.561Z,6.96
2023-03-12T03:07:49.439Z,5.75
2023-03-12T03:10:18.407Z,4.47
2023-03-12T03:12:47.386Z,3.55
2023-03-12T03:15:16.341Z,2.96
2023-03-12T03:17:45.248Z,4.15
2023-03-12T03:20:14.842Z,6.18
2023-03-12T03:22:43.888Z,6.65
2023-03-12T03:25:12.842Z,5.74
2023-03-12T03:27:41.797Z,4.47
2023-03-12T03:30:12.157Z,3.53
2023-03-12T03:32:41.185Z,2.89
2023-03-12T03:35:10.308Z,3.29
2023-03-12T03:37:39.572Z,5.56
2023-03-12T03:40:11.939Z,7.11
2023-03-12T03:42:40.900Z,7.50
2023-03-12T03:45:10.443Z,6.40
2023-03-12T03:47:39.565Z,5.10
2023-03-12T03:50:09.404Z,4.03
2023-03-12T03:52:39.075Z,3.26
2023-03-12T03:55:08.379Z,4.28
2023-03-12T03:57:37.436Z,6.49
2023-03-12T04:00:13.166Z,6.86
2023-03-12T04:02:42.110Z,5.57
2023-03-12T04:05:11.903Z,4.38
2023-03-12T04:07:40.847Z,3.49
2023-03-12T04:10:10.389Z,2.78
2023-03-12T04:12:39.312Z,2.21
2023-03-12T04:15:08.698Z,2.91
2023-03-12T04:17:37.708Z,5.34
2023-03-12T04:20:09.496Z,6.60
2023-03-12T04:22:38.454Z,6.34
2023-03-12T04:25:08.158Z,5.02
2023-03-12T04:27:37.113Z,3.85
2023-03-12T04:30:06.635Z,2.98
2023-03-12T04:32:35.568Z,2.33
2023-03-12T04:35:07.528Z,2.29
2023-03-12T04:37:36.563Z,4.22
2023-03-12T04:40:08.651Z,5.97
2023-03-12T04:42:38.127Z,6.59
2023-03-12T04:45:07.891Z,5.71
2023-03-12T04:47:36.893Z,4.47
2023-03-12T04:50:06.261Z,3.58
2023-03-12T04:52:35.306Z,2.85
2023-03-12T04:55:04.612Z,2.33
2023-03-12T04:57:33.701Z,1.91
2023-03-12T05:00:05.536Z,2.07
2023-03-12T05:02:34.449Z,4.19
2023-03-12T05:05:03.541Z,6.07
2023-03-12T05:07:32.552Z,6.85
2023-03-12T05:10:01.547Z,5.81
2023-03-12T05:12:30.431Z,4.57
2023-03-12T05:14:59.335Z,3.60
2023-03-12T05:17:28.355Z,2.90
2023-03-12T05:19:57.222Z,2.36
2023-03-12T05:22:26.120Z,3.17
2023-03-12T05:24:55.096Z,5.43
2023-03-12T05:27:26.251Z,7.26
2023-03-12T05:29:55.214Z,7.48
2023-03-12T05:32:24.189Z,6.07
2023-03-12T05:34:53.129Z,4.63
2023-03-12T05:37:21.989Z,3.68
2023-03-12T05:39:50.932Z,2.95
2023-03-12T05:42:19.882Z,2.49
2023-03-12T05:44:48.885Z,3.56
2023-03-12T05:47:18.100Z,5.82
2023-03-12T05:49:47.853Z,7.14
2023-03-12T05:52:16.725Z,6.33
2023-03-12T05:54:45.629Z,5.06
2023-03-12T05:57:14.530Z,4.05
2023-03-12T05:59:43.400Z,3.32
2023-03-12T06:02:12.378Z,3.14
2023-03-12T06:04:41.436Z,4.68
2023-03-12T06:07:10.293Z,6.32
2023-03-12T06:09:39.242Z,6.96
2023-03-12T06:12:08.740Z,6.10
2023-03-12T06:14:37.657Z,5.00
2023-03-12T06:17:06.646Z,4.13
2023-03-12T06:19:35.536Z,3.50
2023-03-12T06:22:04.491Z,3.06
2023-03-12T06:24:33.376Z,3.06
2023-03-12T06:27:02.335Z,4.87
2023-03-12T06:29:31.246Z,6.72
2023-03-12T06:32:00.269Z,7.54
2023-03-12T06:34:29.285Z,6.66
2023-03-12T06:36:58.677Z,5.50
2023-03-12T06:39:30.043Z,4.68
2023-03-12T06:41:58.946Z,4.08
2023-03-12T06:44:30.956Z,3.66
2023-03-12T06:46:59.933Z,3.69
2023-03-12T06:49:32.213Z,5.64
2023-03-12T06:52:01.171Z,7.88
2023-03-12T06:54:30.118Z,8.22
2023-03-12T06:57:01.601Z,7.12
2023-03-12T06:59:30.775Z,6.10
2023-03-12T07:02:00.565Z,5.37
2023-03-12T07:04:29.943Z,4.82
2023-03-12T07:06:58.860Z,4.43
2023-03-12T07:09:27.869Z,4.14
2023-03-12T07:11:56.787Z,4.44
2023-03-12T07:14:25.800Z,6.80
2023-03-12T07:16:56.248Z,8.82
2023-03-12T07:19:25.129Z,8.91
2023-03-12T07:21:54.030Z,7.84
2023-03-12T07:24:23.249Z,6.89
2023-03-12T07:26:52.111Z,6.31
2023-03-12T07:29:21.030Z,5.99
2023-03-12T07:31:49.939Z,5.88
2023-03-12T07:34:18.923Z,5.86
2023-03-12T07:36:47.999Z,5.85
2023-03-12T07:39:17.124Z,6.86
2023-03-12T07:41:46.026Z,9.11
2023-03-12T07:44:15.182Z,9.19
2023-03-12T07:46:44.631Z,8.73
2023-03-12T07:49:13.745Z,8.42
2023-03-12T07:51:42.639Z,8.22
2023-03-12T07:54:11.579Z,8.03
2023-03-12T07:56:40.694Z,7.84
2023-03-12T07:59:10.138Z,7.71
2023-03-12T08:01:45.414Z,7.66
2023-03-12T08:04:16.029Z,7.71
2023-03-12T08:06:48.181Z,7.73
2023-03-12T08:09:21.174Z,7.75
2023-03-12T08:11:50.607Z,7.70
2023-03-12T08:14:19.541Z,7.64
2023-03-12T08:16:48.557Z,7.56
2023-03-12T08:19:17.566Z,7.47
2023-03-12T08:21:46.597Z,7.40
2023-03-12T08:24:15.702Z,7.40
2023-03-12T08:26:44.601Z,7.38
2023-03-12T08:29:13.662Z,7.25
2023-03-12T08:32:03.386Z,7.10
2023-03-12T08:34:36.723Z,7.06
2023-03-12T08:37:06.182Z,7.09
2023-03-12T08:39:35.192Z,7.10
2023-03-12T08:42:05.744Z,6.98
2023-03-12T08:44:35.096Z,6.86
2023-03-12T08:47:04.181Z,6.78
2023-03-12T08:49:33.106Z,6.73
2023-03-12T08:52:02.259Z,6.67
2023-03-12T08:54:31.213Z,6.56
2023-03-12T08:57:00.317Z,6.48
2023-03-12T08:59:29.239Z,6.41
2023-03-12T09:01:58.137Z,6.30
2023-03-12T09:04:27.157Z,6.26
2023-03-12T09:06:56.167Z,6.28
2023-03-12T09:09:25.061Z,6.27
2023-03-12T09:11:54.537Z,6.20
2023-03-12T09:17:12.452Z,6.04
2023-03-12T09:19:41.328Z,6.02
2023-03-12T09:22:10.672Z,6.00
2023-03-12T09:24:39.649Z,6.07
2023-03-12T09:27:08.614Z,6.15
2023-03-12T09:29:46.526Z,6.14
2023-03-12T09:32:22.513Z,6.15
2023-03-12T09:35:00.532Z,6.21
2023-03-12T09:37:29.528Z,6.24
2023-03-12T09:39:59.025Z,6.25
2023-03-12T09:42:51.203Z,6.31
2023-03-12T09:45:26.414Z,6.47
2023-03-12T09:47:59.779Z,6.69
2023-03-12T09:50:28.637Z,6.76
2023-03-12T09:53:17.532Z,6.78
2023-03-12T09:55:50.432Z,6.88
2023-03-12T09:58:32.421Z,6.99
2023-03-12T10:01:06.214Z,7.12
2023-03-12T10:04:03.600Z,7.26
2023-03-12T10:06:48.934Z,7.45
2023-03-12T10:09:45.565Z,7.75
2023-03-12T10:12:20.253Z,7.99
2023-03-12T10:14:55.150Z,8.13
2023-03-12T10:17:30.558Z,8.19
2023-03-12T10:20:13.894Z,8.14
2023-03-12T10:22:51.741Z,8.18
2023-03-12T10:25:45.398Z,8.39
2023-03-12T10:28:34.646Z,8.74
2023-03-12T10:31:12.706Z,8.87
2023-03-12T10:33:59.784Z,8.78
2023-03-12T10:36:37.528Z,8.63
2023-03-12T10:39:19.245Z,8.64
2023-03-12T10:41:49.247Z,8.80
2023-03-12T10:44:23.597Z,8.93
2023-03-12T10:47:06.428Z,9.13
2023-03-12T10:49:38.579Z,9.31
2023-03-12T10:52:17.442Z,9.48
2023-03-12T10:54:49.657Z,9.62
2023-03-12T10:57:21.199Z,9.65
2023-03-12T10:59:51.403Z,9.62
2023-03-12T11:02:39.218Z,9.55
2023-03-12T11:05:30.488Z,9.51
2023-03-12T11:08:02.038Z,9.63
2023-03-12T11:10:40.059Z,9.78
2023-03-12T11:13:39.578Z,9.80
2023-03-12T11:16:17.699Z,9.69
2023-03-12T11:18:57.344Z,9.52
2023-03-12T11:21:26.330Z,9.26
2023-03-12T11:23:57.931Z,8.99
2023-03-12T11:26:35.345Z,8.81
2023-03-12T11:29:33.263Z,8.62
2023-03-12T11:32:11.241Z,8.46
2023-03-12T11:34:40.342Z,8.31
2023-03-12T11:37:47.133Z,8.19
2023-03-12T11:40:28.226Z,8.21
2023-03-12T11:43:12.592Z,8.31
2023-03-12T11:45:47.926Z,8.36
2023-03-12T11:48:25.080Z,8.41
2023-03-12T11:50:54.063Z,8.40
2023-03-12T11:53:44.708Z,8.43
2023-03-12T11:56:45.191Z,8.50
2023-03-12T11:59:43.003Z,8.53
2023-03-12T12:02:30.337Z,8.59
2023-03-12T12:05:25.413Z,8.65
2023-03-12T12:08:14.963Z,8.81
2023-03-12T12:11:05.813Z,8.94
2023-03-12T12:13:40.568Z,9.04
2023-03-12T12:16:35.779Z,8.98
2023-03-12T12:19:18.336Z,8.79
2023-03-12T12:22:15.242Z,8.71
2023-03-12T12:25:15.082Z,8.67
2023-03-12T12:28:20.328Z,8.76
2023-03-12T12:31:04.930Z,8.91
2023-03-12T12:33:50.663Z,9.17
2023-03-12T12:36:19.587Z,9.47
2023-03-12T12:39:01.403Z,9.65
2023-03-12T12:41:34.901Z,9.91
2023-03-12T12:44:12.999Z,10.06
2023-03-12T12:46:46.485Z,10.11
2023-03-12T12:49:24.105Z,10.14
2023-03-12T12:52:03.519Z,10.11
2023-03-12T12:54:59.845Z,10.02
2023-03-12T12:58:16.307Z,10.10
2023-03-12T13:01:12.238Z,10.44
2023-03-12T13:03:49.809Z,10.70
2023-03-12T13:06:18.873Z,10.75
2023-03-12T13:08:47.708Z,10.66
2023-03-12T13:11:20.458Z,10.48
2023-03-12T13:14:10.683Z,10.26
2023-03-12T13:16:44.873Z,10.08
2023-03-12T13:19:13.797Z,9.93
2023-03-12T13:22:04.219Z,9.64
2023-03-12T13:24:35.998Z,9.40
2023-03-12T13:27:23.253Z,9.26
2023-03-12T13:29:57.393Z,9.09
2023-03-12T13:32:35.233Z,8.95
2023-03-12T13:35:27.448Z,8.71
2023-03-12T13:38:02.345Z,8.41
2023-03-12T13:41:02.170Z,8.22
2023-03-12T13:43:48.932Z,7.91
2023-03-12T13:46:33.168Z,7.70
2023-03-12T13:49:10.263Z,7.58
2023-03-12T13:51:54.897Z,7.56
2023-03-12T13:54:28.084Z,7.63
2023-03-12T13:57:00.610Z,7.74
2023-03-12T13:59:31.316Z,7.78
2023-03-12T14:02:05.220Z,7.84
2023-03-12T14:04:38.740Z,8.01
2023-03-12T14:07:14.480Z,8.17
2023-03-12T14:10:18.538Z,8.22
2023-03-12T14:12:50.560Z,8.17
2023-03-12T14:15:57.943Z,8.09
2023-03-12T14:18:30.506Z,7.86
2023-03-12T14:21:03.338Z,7.66
2023-03-12T14:23:39.206Z,7.46
2023-03-12T14:26:09.681Z,7.30
2023-03-12T14:28:41.638Z,7.21
2023-03-12T14:31:21.954Z,7.10
2023-03-12T14:33:56.560Z,6.99
2023-03-12T14:36:38.162Z,6.90
2023-03-12T14:39:43.435Z,6.79
2023-03-12T14:42:37.971Z,6.70
2023-03-12T14:45:06.832Z,6.67
2023-03-12T14:47:47.075Z,6.66
2023-03-12T14:50:36.896Z,6.64
2023-03-12T14:53:13.298Z,6.55
2023-03-12T14:55:42.241Z,6.47
2023-03-12T14:58:20.702Z,6.41
2023-03-12T15:00:58.564Z,6.34
2023-03-12T15:03:29.941Z,6.31
2023-03-12T15:05:59.704Z,6.26
2023-03-12T15:08:28.670Z,6.23
2023-03-12T15:10:59.104Z,6.22
2023-03-12T15:13:28.381Z,6.20
2023-03-12T15:15:57.536Z,6.19
2023-03-12T15:18:29.674Z,6.18
2023-03-12T15:21:01.703Z,6.19
2023-03-12T15:23:34.663Z,6.18
2023-03-12T15:26:20.121Z,6.18
2023-03-12T15:29:05.424Z,6.18
2023-03-12T15:31:48.340Z,6.14
2023-03-12T15:34:35.872Z,6.08
2023-03-12T15:37:41.373Z,6.04
2023-03-12T15:40:37.535Z,6.00
2023-03-12T15:43:07.855Z,5.97
2023-03-12T15:45:40.702Z,5.94
2023-03-12T15:48:35.076Z,5.94
2023-03-12T15:51:13.460Z,5.93
2023-03-12T15:53:42.484Z,5.89
2023-03-12T15:56:11.387Z,5.86
2023-03-12T15:58:42.156Z,5.83
2023-03-12T16:01:21.455Z,5.77
2023-03-12T16:03:50.455Z,5.72
2023-03-12T16:06:23.480Z,5.66
2023-03-12T16:09:01.407Z,5.61
2023-03-12T16:11:32.364Z,5.57
2023-03-12T16:14:05.194Z,5.54
2023-03-12T16:16:34.768Z,5.51
2023-03-12T16:19:11.863Z,5.49
2023-03-12T16:21:41.752Z,5.43
2023-03-12T16:24:11.336Z,5.39
2023-03-12T16:27:00.129Z,5.35
2023-03-12T16:29:34.553Z,5.33
2023-03-12T16:32:10.949Z,5.30
2023-03-12T16:34:40.817Z,5.27
2023-03-12T16:37:13.026Z,5.24
2023-03-12T16:39:44.301Z,5.21
2023-03-12T16:42:17.579Z,5.18
2023-03-12T16:44:46.838Z,5.16
2023-03-12T16:47:15.943Z,5.13
2023-03-12T16:49:44.963Z,5.10
2023-03-12T16:52:22.175Z,5.06
2023-03-12T16:54:53.277Z,5.02
2023-03-12T16:57:31.875Z,4.99
2023-03-12T17:00:02.465Z,4.96
2023-03-12T17:02:31.923Z,4.93
2023-03-12T17:05:01.359Z,4.90
2023-03-12T17:07:30.430Z,4.87
2023-03-12T17:09:59.697Z,4.82
2023-03-12T17:12:30.893Z,4.78
2023-03-12T17:15:01.863Z,4.74
2023-03-12T17:17:31.380Z,4.69
2023-03-12T17:20:00.608Z,4.64
2023-03-12T17:22:29.623Z,4.60
2023-03-12T17:24:58.650Z,4.56
2023-03-12T17:27:27.518Z,4.52
2023-03-12T17:29:56.433Z,4.47
2023-03-12T17:32:25.485Z,4.40
2023-03-12T17:34:56.832Z,4.33
2023-03-12T17:37:25.783Z,4.29
2023-03-12T17:39:54.737Z,4.26
2023-03-12T17:42:23.625Z,4.24
2023-03-12T17:44:52.607Z,4.22
2023-03-12T17:47:21.483Z,4.22
2023-03-12T17:49:50.437Z,5.45
2023-03-12T17:52:20.033Z,7.95
2023-03-12T17:54:48.946Z,9.73
2023-03-12T17:57:17.916Z,9.96
2023-03-12T17:59:46.814Z,8.94
2023-03-12T18:02:15.995Z,8.01
2023-03-12T18:04:45.176Z,7.35
2023-03-12T18:07:14.321Z,6.84
2023-03-12T18:09:43.383Z,6.43
2023-03-12T18:12:12.534Z,6.07
2023-03-12T18:14:41.433Z,5.77
2023-03-12T18:17:10.337Z,5.53
2023-03-12T18:19:39.295Z,5.33
2023-03-12T18:22:08.390Z,5.14
2023-03-12T18:24:37.298Z,4.96
2023-03-12T18:27:06.259Z,4.81
2023-03-12T18:29:36.930Z,4.71
2023-03-12T18:32:06.012Z,4.62
2023-03-12T18:34:35.385Z,4.55
2023-03-12T18:37:04.286Z,4.49
2023-03-12T18:39:33.242Z,4.44
2023-03-12T18:42:02.158Z,4.40
2023-03-12T18:44:31.264Z,4.37
2023-03-12T18:47:00.274Z,4.36
2023-03-12T18:49:29.332Z,4.34
2023-03-12T18:51:58.224Z,4.31
2023-03-12T18:54:27.110Z,4.30
2023-03-12T18:56:56.017Z,4.29
2023-03-12T18:59:25.168Z,4.28
2023-03-12T19:01:54.411Z,4.26
2023-03-12T19:04:23.908Z,4.24
2023-03-12T19:06:52.919Z,4.22
2023-03-12T19:09:21.938Z,4.20
2023-03-12T19:11:50.898Z,4.19
2023-03-12T19:14:19.834Z,4.18
2023-03-12T19:16:48.809Z,4.17
2023-03-12T19:19:17.871Z,4.53
2023-03-12T19:21:46.848Z,6.80
2023-03-12T19:24:15.781Z,8.73
2023-03-12T19:26:44.741Z,9.81
2023-03-12T19:29:15.326Z,9.15
2023-03-12T19:31:45.495Z,8.13
2023-03-12T19:34:14.593Z,7.40
2023-03-12T19:36:44.033Z,6.82
2023-03-12T19:39:21.080Z,6.40
2023-03-12T19:41:51.056Z,6.06
2023-03-12T19:44:20.002Z,5.78
2023-03-12T19:46:48.980Z,5.54
2023-03-12T19:49:17.907Z,5.32
2023-03-12T19:51:46.863Z,5.12
2023-03-12T19:54:15.748Z,4.94
2023-03-12T19:56:44.664Z,4.78
2023-03-12T19:59:13.707Z,4.65
2023-03-12T20:01:43.178Z,4.56
2023-03-12T20:04:12.239Z,4.49
2023-03-12T20:06:41.291Z,4.43
2023-03-12T20:09:10.244Z,4.39
2023-03-12T20:11:39.225Z,4.35
2023-03-12T20:14:08.539Z,4.31
2023-03-12T20:16:38.151Z,4.29
2023-03-12T20:19:07.165Z,4.25
2023-03-12T20:21:36.058Z,4.40
2023-03-12T20:24:05.427Z,6.43
2023-03-12T20:26:34.325Z,8.81
2023-03-12T20:29:04.784Z,10.03
2023-03-12T20:31:34.405Z,9.47
2023-03-12T20:34:03.425Z,8.26
2023-03-12T20:36:32.433Z,7.33
2023-03-12T20:39:01.328Z,6.65
2023-03-12T20:41:30.971Z,6.15
2023-03-12T20:44:00.132Z,5.75
2023-03-12T20:46:29.120Z,5.40
2023-03-12T20:48:58.182Z,5.11
2023-03-12T20:51:27.222Z,4.84
2023-03-12T20:53:57.411Z,4.61
2023-03-12T20:56:27.709Z,4.45
2023-03-12T20:58:57.330Z,5.28
2023-03-12T21:01:26.436Z,7.25
2023-03-12T21:03:58.926Z,8.78
2023-03-12T21:06:28.363Z,9.14
2023-03-12T21:08:58.246Z,8.04
2023-03-12T21:11:27.195Z,6.86
2023-03-12T21:13:56.188Z,6.15
2023-03-12T21:16:25.198Z,5.52
2023-03-12T21:18:57.694Z,5.05
2023-03-12T21:21:26.618Z,4.71
2023-03-12T21:23:55.522Z,5.86
2023-03-12T21:26:24.453Z,7.91
2023-03-12T21:28:54.221Z,9.24
2023-03-12T21:31:23.655Z,9.98
2023-03-12T21:33:59.036Z,9.72
2023-03-12T21:36:28.025Z,8.66
2023-03-12T21:38:56.899Z,7.45
2023-03-12T21:41:26.434Z,6.27
2023-03-12T21:43:55.309Z,5.74
2023-03-12T21:46:25.016Z,7.14
2023-03-12T21:48:54.210Z,7.96
2023-03-12T21:51:26.179Z,6.90
2023-03-12T21:53:56.452Z,5.80
2023-03-12T21:56:28.271Z,5.07
2023-03-12T21:58:58.120Z,4.90
2023-03-12T22:01:27.997Z,6.64
2023-03-12T22:03:58.936Z,7.72
2023-03-12T22:06:27.821Z,7.48
2023-03-12T22:08:56.941Z,6.16
2023-03-12T22:11:25.878Z,5.22
2023-03-12T22:13:54.769Z,4.94
2023-03-12T22:16:23.778Z,6.63
2023-03-12T22:18:52.744Z,8.51
2023-03-12T22:21:22.496Z,9.29
2023-03-12T22:23:53.539Z,8.24
2023-03-12T22:26:24.297Z,7.15
2023-03-12T22:28:56.961Z,5.97
2023-03-12T22:31:28.563Z,5.77
2023-03-12T22:33:57.867Z,7.16
2023-03-12T22:36:26.847Z,8.32
2023-03-12T22:38:55.917Z,8.58
2023-03-12T22:41:27.732Z,7.58
2023-03-12T22:44:01.723Z,6.22
2023-03-12T22:46:30.816Z,5.63
2023-03-12T22:49:01.564Z,6.79
2023-03-12T22:51:32.455Z,7.85
2023-03-12T22:54:01.562Z,8.67
2023-03-12T22:56:30.629Z,7.66
2023-03-12T22:58:59.859Z,6.34
2023-03-12T23:01:29.008Z,5.28
2023-03-12T23:03:58.044Z,5.37
2023-03-12T23:06:30.050Z,6.96
2023-03-12T23:08:59.333Z,7.85
2023-03-12T23:11:29.759Z,8.21
2023-03-12T23:13:58.877Z,7.50
2023-03-12T23:16:27.949Z,6.26
2023-03-12T23:18:57.053Z,5.78
2023-03-12T23:21:26.504Z,7.24
2023-03-12T23:23:55.411Z,8.77
2023-03-12T23:26:27.413Z,9.43
2023-03-12T23:28:58.884Z,9.45
2023-03-12T23:31:29.891Z,8.34
2023-03-12T23:33:58.941Z,6.81
2023-03-12T23:36:30.427Z,6.30
2023-03-12T23:38:59.374Z,7.68
2023-03-12T23:41:31.875Z,8.50
2023-03-12T23:44:00.846Z,9.25
2023-03-12T23:46:30.156Z,8.80
2023-03-12T23:48:59.083Z,7.24
2023-03-12T23:51:33.024Z,6.41
2023-03-12T23:54:06.498Z,7.80
2023-03-12T23:56:40.262Z,9.05
2023-03-12T23:59:10.373Z,9.85
